Airfield :
LOGIN :

Register | Disclaimer

   EN    FR    IT 

 










Legend :    VFR   Marginal VFR   IFR   Intensive IFR   Very Intensive IFR
Visi :
Ceiling :
>= 8 km
>= 3000ft
5 to 8 km
1000 to 3000 ft
1500m to 5 km
500 to 1000 ft
800 to 1500m
200 to 500 ft
< 800m
< 200 ft
Symbols :   Thunderstorms  Fog  Heavy snow  Heavy precipitations  Wind > 20 kt
SIGMETs :     Misc.  Thunderstorms  Icing  Turbulence  Mountain Waves  Volcanic Ashes






- Airport Elevation : 124 ft
- IATA code : RNS


LFRN - Rennes

CURRENT METAR :
  • 270900Z AUTO 33022KT 300V360 7000 -RA FEW020/// SCT025/// BKN031/// ///TCU 05/03 Q0995 TEMPO 33025G40KT 2000 SHRAGS BKN015CB

EXPIRED METARs :
  • 270830Z AUTO 33017KT 9999 -RA FEW018/// BKN026/// BKN035/// ///TCU 05/03 Q0995 TEMPO 33025G40KT 2000 SHRAGS BKN015CB
  • 270800Z AUTO 33015KT 9999 -RA BKN024/// BKN032/// BKN041/// ///TCU 05/03 Q0994 TEMPO 33025G40KT 2000 SHRAGS BKN015CB
  • 270730Z AUTO 30011KT 280V340 9999 4700 RA SCT023/// BKN030/// BKN037/// ///TCU 05/03 Q0994 TEMPO 33025G40KT 2000 SHRAGS BKN015CB
  • 270700Z AUTO 31016G29KT 9999 -RA SCT019/// BKN027/// BKN032/// ///TCU 05/03 Q0993 TEMPO 33025G40KT 2000 SHRAGS BKN015CB
  • 270630Z AUTO 29012KT 9999 -RA FEW015/// OVC022/// ///TCU 04/03 Q0993 TEMPO 33025G40KT 2000 SHRAGS BKN015CB

TAF TAF LFRN
Valid from the 27 at 06:00 until the 28 at 06:00 UTC


270500Z 2706/2806 30015G25KT 9999 BKN025
TEMPO 2706/2721 4000 SHRA BKN020CB
TEMPO 2706/2718 33025G40KT 2000 SHRAGS BKN015CB
PROB30
TEMPO 2706/2708 2000 SHRASN BKN008 BKN015CB
BECMG 2708/2710 33020G30KT
BECMG 2721/2724 35015G25KT
BECMG 2803/2806 34010KT
ATIS : +33 2 99 67 72 50



MET'MAP, your aeronautical weather chart ! - Copyright ORBIFLY December 2007 - Disclaimer

ORBIFLY MET'MAP TEAM :

Programming & Development : Alexandra Zaïnal
Concept & original design : Baudouin d'Aumeries
Assistance for programming : Marc-Olivier Méhu
Technical & hardware support : Manuel Goepfert

Contact : metmap@orbifly.com




SOURCES & CREDITS :

   NOAA